Time;durP1;ratioP1;P1;durP2;ratioP2;P2;SDS_P1;SDS_P2;PMS_P1;PMS_P2;Temp;Humidity;BMP_temperature;BMP_pressure;BME280_temperature;BME280_humidity;BME280_pressure;Samples;Min_cycle;Max_cycle;Signal;HPM_P1;HPM_P2
2022/11/11 00:02:18;;;;;;;10.70;2.60;;;18.90;1.00;;;;;;4844109;29;20106;-50
2022/11/11 00:05:04;;;;;;;7.60;1.80;;;18.90;1.00;;;;;;4843689;29;20179;-49
2022/11/11 00:07:51;;;;;;;9.38;2.67;;;18.80;1.00;;;;;;4843980;29;20055;-51
2022/11/11 00:10:36;;;;;;;8.90;2.33;;;18.80;1.00;;;;;;4843332;29;20145;-51
2022/11/11 00:13:22;;;;;;;7.85;2.20;;;18.80;1.00;;;;;;4844060;29;20511;-49
2022/11/11 00:16:14;;;;;;;7.72;1.40;;;18.80;1.00;;;;;;4847768;29;20102;-51
2022/11/11 00:25:25;;;;;;;10.75;3.25;;;18.70;1.00;;;;;;4862093;29;20056;-47
2022/11/11 00:28:10;;;;;;;8.05;2.45;;;18.60;1.00;;;;;;4861958;29;20153;-51
2022/11/11 00:31:08;;;;;;;10.18;1.90;;;18.60;1.00;;;;;;4861125;29;20059;-47
2022/11/11 00:33:53;;;;;;;9.65;3.03;;;18.60;1.00;;;;;;4861779;29;20084;-51
2022/11/11 00:36:38;;;;;;;7.63;1.90;;;18.60;1.00;;;;;;4861597;29;20060;-47
2022/11/11 00:39:28;;;;;;;14.10;3.22;;;18.60;1.00;;;;;;4861048;29;20416;-48
2022/11/11 00:42:14;;;;;;;7.95;1.88;;;18.60;1.00;;;;;;4861948;29;20499;-49
2022/11/11 00:45:00;;;;;;;8.52;1.92;;;18.60;1.00;;;;;;4861574;29;20053;-46
2022/11/11 00:50:58;;;;;;;;;;;18.50;1.00;;;;;;4861879;29;20149;-49
2022/11/11 00:53:43;;;;;;;9.40;2.20;;;18.50;1.00;;;;;;4862249;29;19931;-51
2022/11/11 00:56:29;;;;;;;9.77;3.28;;;18.40;1.00;;;;;;4861297;29;20118;-50
2022/11/11 00:59:14;;;;;;;5.40;1.83;;;18.40;1.00;;;;;;4861240;29;20056;-48
2022/11/11 01:02:00;;;;;;;9.25;2.65;;;18.40;1.00;;;;;;4861259;29;20151;-49
2022/11/11 01:04:45;;;;;;;8.82;1.60;;;18.40;1.00;;;;;;4861550;29;20060;-47
2022/11/11 01:07:31;;;;;;;10.63;2.85;;;18.40;1.00;;;;;;4861730;29;20057;-48
2022/11/11 01:10:37;;;;;;;13.27;2.28;;;18.40;1.00;;;;;;4861053;29;20084;-48
2022/11/11 01:13:28;;;;;;;8.57;2.05;;;18.40;1.00;;;;;;4861291;29;20130;-49
2022/11/11 01:16:21;;;;;;;9.15;2.78;;;18.40;1.00;;;;;;4861115;29;20141;-46
2022/11/11 01:19:06;;;;;;;10.35;2.38;;;18.40;1.00;;;;;;4861202;29;20522;-52
2022/11/11 01:21:52;;;;;;;9.57;2.00;;;18.30;1.00;;;;;;4861373;29;20106;-51
2022/11/11 01:24:38;;;;;;;9.13;2.20;;;18.30;1.00;;;;;;4861040;29;20057;-51
2022/11/11 01:27:23;;;;;;;8.02;2.65;;;18.30;1.00;;;;;;4860839;29;20048;-49
2022/11/11 01:30:12;;;;;;;15.30;2.13;;;18.30;1.00;;;;;;4860741;29;20412;-49
2022/11/11 01:32:58;;;;;;;10.07;3.45;;;18.30;1.00;;;;;;4860750;29;20052;-52
2022/11/11 01:35:44;;;;;;;8.23;2.08;;;18.30;1.00;;;;;;4861516;29;20060;-48
2022/11/11 01:38:29;;;;;;;13.10;2.15;;;18.20;1.00;;;;;;4861057;29;20065;-54
2022/11/11 01:41:37;;;;;;;6.55;2.10;;;18.20;1.00;;;;;;4860977;29;20056;-50
2022/11/11 01:44:46;;;;;;;8.43;2.22;;;18.20;1.00;;;;;;4864485;29;20060;-48
2022/11/11 01:49:17;;;;;;;8.52;4.30;;;18.20;1.00;;;;;;4864966;29;20057;-47
2022/11/11 01:51:01;;;;;;;8.27;2.33;;;18.20;1.00;;;;;;4864580;29;20073;-48
2022/11/11 01:53:52;;;;;;;8.48;2.47;;;18.20;1.00;;;;;;4865081;29;20583;-49
2022/11/11 01:56:39;;;;;;;6.57;1.98;;;18.20;1.00;;;;;;4864474;29;20053;-52
2022/11/11 01:59:26;;;;;;;8.73;3.03;;;18.20;1.00;;;;;;4863990;29;20194;-49
2022/11/11 02:02:20;;;;;;;7.60;2.42;;;18.20;1.00;;;;;;4864533;29;20101;-50
2022/11/11 02:08:31;;;;;;;8.77;2.08;;;18.20;1.00;;;;;;4864471;29;20420;-49
2022/11/11 02:14:34;;;;;;;8.10;2.10;;;18.10;1.00;;;;;;4864368;29;20141;-50
2022/11/11 02:14:38;;;;;;;4.85;1.73;;;18.10;1.00;;;;;;4864362;29;20129;-49
2022/11/11 02:17:27;;;;;;;6.18;2.33;;;18.10;1.00;;;;;;4864116;29;20151;-53
2022/11/11 02:20:15;;;;;;;8.40;2.80;;;18.00;1.00;;;;;;4863745;29;20056;-49
2022/11/11 02:23:07;;;;;;;9.32;2.78;;;18.10;1.00;;;;;;4864468;29;20157;-50
2022/11/11 02:25:55;;;;;;;6.85;2.03;;;18.10;1.00;;;;;;4864239;29;20053;-49
2022/11/11 02:28:41;;;;;;;11.25;3.63;;;18.10;1.00;;;;;;4863720;29;20048;-49
2022/11/11 02:31:28;;;;;;;5.45;2.08;;;18.00;1.00;;;;;;4863842;29;20059;-50
2022/11/11 02:34:14;;;;;;;7.30;1.75;;;18.00;1.00;;;;;;4863984;29;20069;-50
2022/11/11 02:37:02;;;;;;;11.00;2.13;;;18.10;1.00;;;;;;4864402;29;20441;-49
2022/11/11 02:39:50;;;;;;;7.70;2.13;;;18.00;1.00;;;;;;4863188;29;20051;-51
2022/11/11 02:42:51;;;;;;;11.35;2.45;;;18.00;1.00;;;;;;4864064;29;20145;-49
2022/11/11 02:45:36;;;;;;;7.05;2.47;;;18.00;1.00;;;;;;4863703;29;20056;-51
2022/11/11 02:48:22;;;;;;;6.93;1.80;;;18.00;1.00;;;;;;4863773;29;20125;-50
2022/11/11 02:51:08;;;;;;;6.88;2.33;;;18.00;1.00;;;;;;4863490;29;20118;-49
2022/11/11 02:53:57;;;;;;;7.75;2.58;;;18.00;1.00;;;;;;4863105;29;20056;-50
2022/11/11 02:59:47;;;;;;;8.48;2.97;;;18.00;1.00;;;;;;4863247;29;20053;-48
2022/11/11 03:02:32;;;;;;;9.23;2.75;;;18.00;1.00;;;;;;4864028;29;20061;-51
2022/11/11 03:05:18;;;;;;;9.63;2.47;;;18.00;1.00;;;;;;4863618;29;20440;-47
2022/11/11 03:08:04;;;;;;;8.77;2.65;;;17.90;1.00;;;;;;4863175;29;20440;-47
2022/11/11 03:10:50;;;;;;;8.85;2.13;;;18.00;1.00;;;;;;4863458;29;20067;-48
2022/11/11 03:13:35;;;;;;;5.90;2.05;;;18.00;1.00;;;;;;4863859;29;20113;-48
2022/11/11 03:19:24;;;;;;;7.05;2.47;;;17.90;1.00;;;;;;4862940;29;20122;-50
2022/11/11 03:22:10;;;;;;;12.05;3.35;;;18.00;1.00;;;;;;4863706;29;20056;-47
2022/11/11 03:28:20;;;;;;;7.55;2.35;;;18.00;1.00;;;;;;4863681;29;20048;-51
2022/11/11 03:31:05;;;;;;;6.28;2.15;;;17.90;1.00;;;;;;4862941;29;20064;-50
2022/11/11 03:33:51;;;;;;;6.07;2.15;;;17.90;1.00;;;;;;4862930;29;20059;-50
2022/11/11 03:39:44;;;;;;;6.82;2.40;;;17.90;1.00;;;;;;4849351;29;20527;-50
2022/11/11 03:42:30;;;;;;;6.13;2.53;;;17.90;1.00;;;;;;4863349;29;20136;-47
2022/11/11 03:45:15;;;;;;;7.72;2.63;;;17.90;1.00;;;;;;4862444;29;20056;-48
2022/11/11 03:48:01;;;;;;;10.15;2.65;;;17.90;1.00;;;;;;4862666;29;20052;-51
2022/11/11 03:50:46;;;;;;;10.25;2.22;;;17.90;1.00;;;;;;4862918;29;20460;-49
2022/11/11 03:53:32;;;;;;;13.60;2.85;;;17.90;1.00;;;;;;4862529;29;20169;-47
2022/11/11 03:56:17;;;;;;;9.20;2.97;;;17.90;1.00;;;;;;4862676;29;20060;-48
2022/11/11 03:59:03;;;;;;;7.78;2.08;;;17.90;1.00;;;;;;4862028;29;20072;-51
2022/11/11 04:11:08;;;;;;;8.50;2.00;;;17.80;1.00;;;;;;4862299;29;20117;-50
2022/11/11 04:17:01;;;;;;;8.85;3.13;;;17.80;1.00;;;;;;4862142;29;20061;-51
2022/11/11 04:22:52;;;;;;;11.23;2.55;;;17.80;1.00;;;;;;4862175;29;20515;-48
2022/11/11 04:25:51;;;;;;;10.93;2.80;;;17.80;1.00;;;;;;4862369;29;20071;-49
2022/11/11 04:32:34;;;;;;;;;;;17.80;1.00;;;;;;4862050;29;20110;-47
2022/11/11 04:34:48;;;;;;;9.48;3.90;;;17.80;1.00;;;;;;4862146;29;20004;-47
2022/11/11 04:37:36;;;;;;;11.98;2.70;;;17.80;1.00;;;;;;4861956;29;20060;-46
2022/11/11 04:43:25;;;;;;;9.13;2.42;;;17.80;1.00;;;;;;4862147;29;20069;-47
2022/11/11 04:46:11;;;;;;;8.57;3.00;;;17.80;1.00;;;;;;4861939;29;20400;-51
2022/11/11 04:48:56;;;;;;;7.43;2.65;;;17.70;1.00;;;;;;4861201;29;20056;-47
2022/11/11 04:57:49;;;;;;;7.47;3.30;;;17.70;1.00;;;;;;4861544;29;20412;-50
2022/11/11 05:00:35;;;;;;;10.38;3.03;;;17.80;1.00;;;;;;4861079;29;20117;-50
2022/11/11 05:03:23;;;;;;;8.30;2.67;;;17.80;1.00;;;;;;4861389;29;20514;-50
2022/11/11 05:09:13;;;;;;;;;;;17.80;1.00;;;;;;4857422;29;20061;-50
2022/11/11 05:11:58;;;;;;;13.40;3.58;;;17.70;1.00;;;;;;4851402;29;20037;-50
2022/11/11 05:21:19;;;;;;;;;;;17.70;1.00;;;;;;4843359;29;20422;-49
2022/11/11 05:27:08;;;;;;;9.75;2.63;;;17.70;1.00;;;;;;4842468;29;20053;-50
2022/11/11 05:29:54;;;;;;;13.30;3.88;;;17.70;1.00;;;;;;4842155;29;20057;-48
2022/11/11 05:32:40;;;;;;;16.45;3.75;;;17.70;1.00;;;;;;4842774;29;20110;-51
2022/11/11 05:35:25;;;;;;;9.73;2.95;;;17.70;1.00;;;;;;4842658;29;20151;-52
2022/11/11 05:38:20;;;;;;;11.48;3.33;;;17.70;1.00;;;;;;4842950;29;20060;-48
2022/11/11 05:41:06;;;;;;;13.25;4.30;;;17.70;1.00;;;;;;4842886;29;20072;-50
2022/11/11 05:43:51;;;;;;;10.80;3.63;;;17.70;1.00;;;;;;4842844;29;20068;-50
2022/11/11 05:46:37;;;;;;;11.25;2.70;;;17.70;1.00;;;;;;4841759;29;20183;-51
2022/11/11 05:49:23;;;;;;;10.35;4.03;;;17.70;1.00;;;;;;4841978;29;20057;-54
2022/11/11 05:52:15;;;;;;;17.60;3.78;;;17.70;1.00;;;;;;4842328;29;20503;-49
2022/11/11 05:55:00;;;;;;;12.98;3.67;;;17.70;1.00;;;;;;4853493;29;20135;-49
2022/11/11 05:57:45;;;;;;;6.70;3.85;;;17.60;1.00;;;;;;4877962;29;20060;-48
2022/11/11 06:00:31;;;;;;;10.40;2.50;;;17.70;1.00;;;;;;4878819;29;20089;-51
2022/11/11 06:03:16;;;;;;;10.13;3.90;;;17.70;1.00;;;;;;4879750;29;20059;-51
2022/11/11 06:06:01;;;;;;;7.43;2.47;;;17.70;1.00;;;;;;4880003;29;20052;-52
2022/11/11 06:08:47;;;;;;;13.30;3.33;;;17.70;1.00;;;;;;4879014;29;20132;-51
2022/11/11 06:11:32;;;;;;;8.73;3.35;;;17.60;1.00;;;;;;4879366;29;20205;-49
2022/11/11 06:14:18;;;;;;;7.50;2.80;;;17.70;1.00;;;;;;4879152;29;20056;-48
2022/11/11 06:17:03;;;;;;;13.57;3.08;;;17.70;1.00;;;;;;4879416;29;20128;-52
2022/11/11 06:19:49;;;;;;;10.02;3.42;;;17.60;1.00;;;;;;4879099;29;20076;-49
2022/11/11 06:28:54;;;;;;;8.02;2.90;;;17.60;1.00;;;;;;4879165;29;20109;-51
2022/11/11 06:31:41;;;;;;;11.80;3.65;;;17.60;1.00;;;;;;4881979;29;20140;-50
2022/11/11 06:34:26;;;;;;;12.40;3.53;;;17.60;1.00;;;;;;4882857;29;20105;-48
2022/11/11 06:37:11;;;;;;;13.15;2.90;;;17.60;1.00;;;;;;4882486;29;20060;-48
2022/11/11 06:39:57;;;;;;;12.50;3.25;;;17.60;1.00;;;;;;4882104;29;20055;-51
2022/11/11 06:42:42;;;;;;;8.00;3.05;;;17.60;1.00;;;;;;4882437;29;20048;-49
2022/11/11 06:45:30;;;;;;;7.78;3.03;;;17.60;1.00;;;;;;4882664;29;20048;-48
2022/11/11 06:48:15;;;;;;;8.05;3.53;;;17.60;1.00;;;;;;4881807;29;20152;-47
2022/11/11 06:51:05;;;;;;;12.57;3.63;;;17.60;1.00;;;;;;4882341;29;20060;-48
2022/11/11 06:53:51;;;;;;;10.35;3.30;;;17.60;1.00;;;;;;4882654;29;20113;-47
2022/11/11 06:56:36;;;;;;;12.35;4.25;;;17.60;1.00;;;;;;4882929;29;20078;-52
2022/11/11 06:59:21;;;;;;;14.02;3.63;;;17.60;1.00;;;;;;4881607;29;20404;-48
2022/11/11 07:02:13;;;;;;;11.07;3.47;;;17.60;1.00;;;;;;4882131;29;20059;-48
2022/11/11 07:04:59;;;;;;;9.50;2.90;;;17.60;1.00;;;;;;4882366;29;20113;-47
2022/11/11 07:07:44;;;;;;;8.35;2.90;;;17.60;1.00;;;;;;4881834;29;20571;-49
2022/11/11 07:10:31;;;;;;;11.00;3.38;;;17.60;1.00;;;;;;4881501;29;20435;-50
2022/11/11 07:13:16;;;;;;;10.73;3.72;;;17.60;1.00;;;;;;4881414;29;20545;-48
2022/11/11 07:16:02;;;;;;;12.45;3.83;;;17.60;1.00;;;;;;4882135;29;20059;-48
2022/11/11 07:18:47;;;;;;;9.90;3.55;;;17.60;1.00;;;;;;4878539;29;20419;-52
2022/11/11 07:21:33;;;;;;;9.75;3.53;;;17.60;1.00;;;;;;4875850;29;20534;-49
2022/11/11 07:24:19;;;;;;;9.48;3.63;;;17.60;1.00;;;;;;4881580;29;20510;-49
2022/11/11 07:27:04;;;;;;;11.68;3.58;;;17.60;1.00;;;;;;4881773;29;20056;-50
2022/11/11 07:29:49;;;;;;;10.05;3.30;;;17.60;1.00;;;;;;4880941;29;20056;-48
2022/11/11 07:32:35;;;;;;;13.38;3.92;;;17.60;1.00;;;;;;4880325;29;20064;-47
2022/11/11 07:35:22;;;;;;;12.82;3.55;;;17.50;1.00;;;;;;4877398;29;20063;-51
2022/11/11 07:38:07;;;;;;;7.55;3.58;;;17.60;1.00;;;;;;4879459;29;20064;-49
2022/11/11 07:40:52;;;;;;;9.68;3.00;;;17.60;1.00;;;;;;4880721;29;20069;-48
2022/11/11 07:43:38;;;;;;;11.77;4.15;;;17.60;1.00;;;;;;4881184;29;20148;-48
2022/11/11 07:46:24;;;;;;;5.85;2.53;;;17.60;1.00;;;;;;4881794;29;20064;-46
2022/11/11 07:49:09;;;;;;;15.73;3.65;;;17.50;1.00;;;;;;4880899;29;20052;-48
2022/11/11 07:51:55;;;;;;;9.18;3.83;;;17.50;1.00;;;;;;4881130;29;20184;-52
2022/11/11 07:54:40;;;;;;;7.88;3.08;;;17.50;1.00;;;;;;4880949;29;20055;-52
2022/11/11 07:57:26;;;;;;;10.40;3.83;;;17.50;1.00;;;;;;4880779;29;20079;-50
2022/11/11 08:00:12;;;;;;;7.47;2.90;;;17.50;1.00;;;;;;4880795;29;20075;-52
2022/11/11 08:02:57;;;;;;;9.13;3.45;;;17.50;1.00;;;;;;4880749;29;20052;-47
2022/11/11 08:05:45;;;;;;;13.02;3.28;;;17.50;1.00;;;;;;4880914;29;20579;-51
2022/11/11 08:08:30;;;;;;;6.55;3.03;;;17.50;1.00;;;;;;4880724;29;20052;-47
2022/11/11 08:13:38;;;;;;;5.80;3.75;;;17.50;1.00;;;;;;4880665;29;20534;-51
2022/11/11 08:14:22;;;;;;;9.85;3.95;;;17.50;1.00;;;;;;4880621;29;20059;-52
2022/11/11 08:17:07;;;;;;;6.38;3.40;;;17.50;1.00;;;;;;4880403;29;20125;-53
2022/11/11 08:19:52;;;;;;;8.02;3.03;;;17.50;1.00;;;;;;4880307;29;20064;-46
2022/11/11 08:22:40;;;;;;;7.65;3.58;;;17.50;1.00;;;;;;4880307;29;20117;-50
2022/11/11 08:25:25;;;;;;;8.52;3.95;;;17.50;1.00;;;;;;4880638;29;20190;-49
2022/11/11 08:28:11;;;;;;;8.27;3.25;;;17.50;1.00;;;;;;4880510;29;20158;-49
2022/11/11 08:31:01;;;;;;;9.98;3.25;;;17.50;1.00;;;;;;4880356;29;20075;-49
2022/11/11 08:33:49;;;;;;;10.60;3.28;;;17.50;1.00;;;;;;4881095;29;20112;-49
2022/11/11 08:36:34;;;;;;;9.40;3.63;;;17.50;1.00;;;;;;4880302;29;20060;-49
2022/11/11 08:39:20;;;;;;;7.65;3.15;;;17.50;1.00;;;;;;4879937;29;20064;-49
2022/11/11 08:42:06;;;;;;;6.60;2.65;;;17.50;1.00;;;;;;4879972;29;20048;-50
2022/11/11 08:44:51;;;;;;;7.78;3.25;;;17.50;1.00;;;;;;4880778;29;20466;-49
2022/11/11 08:47:37;;;;;;;10.13;3.10;;;17.50;1.00;;;;;;4880079;29;20100;-50
2022/11/11 08:50:22;;;;;;;9.02;3.35;;;17.50;1.00;;;;;;4879354;29;20055;-49
2022/11/11 08:53:09;;;;;;;14.50;4.85;;;17.50;1.00;;;;;;4879099;29;20060;-53
2022/11/11 08:55:54;;;;;;;9.52;3.40;;;17.50;1.00;;;;;;4879107;29;20186;-50
2022/11/11 08:58:40;;;;;;;8.27;3.70;;;17.50;1.00;;;;;;4879597;29;20518;-51
2022/11/11 09:01:25;;;;;;;7.25;3.25;;;17.50;1.00;;;;;;4879531;29;20525;-47
2022/11/11 09:04:11;;;;;;;9.45;3.60;;;17.50;1.00;;;;;;4879988;29;20056;-50
2022/11/11 09:07:17;;;;;;;9.05;2.85;;;17.50;1.00;;;;;;4879820;29;20064;-51
2022/11/11 09:10:02;;;;;;;6.97;4.10;;;17.50;1.00;;;;;;4879372;29;20056;-50
2022/11/11 09:12:48;;;;;;;5.63;2.63;;;17.50;1.00;;;;;;4879728;29;20071;-50
2022/11/11 09:15:33;;;;;;;8.80;3.47;;;17.50;1.00;;;;;;4879880;29;20533;-51
2022/11/11 09:18:19;;;;;;;10.43;3.15;;;17.50;1.00;;;;;;4879454;29;20391;-48
2022/11/11 09:21:05;;;;;;;8.02;3.22;;;17.50;1.00;;;;;;4879721;29;20060;-48
2022/11/11 09:23:50;;;;;;;6.93;3.35;;;17.50;1.00;;;;;;4878708;29;20051;-51
2022/11/11 09:26:36;;;;;;;5.90;2.70;;;17.50;1.00;;;;;;4879122;29;20052;-52
2022/11/11 09:29:21;;;;;;;7.88;3.97;;;17.50;1.00;;;;;;4879359;29;20048;-48
2022/11/11 09:32:07;;;;;;;8.30;3.85;;;17.50;1.00;;;;;;4879250;29;20640;-49
2022/11/11 09:34:54;;;;;;;10.82;4.18;;;17.50;1.00;;;;;;4879301;29;20064;-50
2022/11/11 09:37:39;;;;;;;6.50;3.35;;;17.50;1.00;;;;;;4879736;29;20064;-48
2022/11/11 09:40:27;;;;;;;6.50;3.53;;;17.50;1.00;;;;;;4879219;29;20060;-49
2022/11/11 09:43:35;;;;;;;10.13;4.05;;;17.50;1.00;;;;;;4879595;29;20060;-50
2022/11/11 09:46:59;;;;;;;7.13;3.88;;;17.50;1.00;;;;;;4879721;29;20124;-48
2022/11/11 09:50:21;;;;;;;5.40;2.92;;;17.50;1.00;;;;;;4879344;29;20060;-49
2022/11/11 09:53:13;;;;;;;8.48;3.45;;;17.50;1.00;;;;;;4804382;29;20414;-47
2022/11/11 09:56:03;;;;;;;8.25;3.45;;;17.50;1.00;;;;;;4879129;29;20117;-47
2022/11/11 09:59:22;;;;;;;8.80;3.55;;;17.40;1.00;;;;;;4878888;29;20452;-46
2022/11/11 10:02:18;;;;;;;11.05;4.85;;;17.40;1.00;;;;;;4878993;29;20415;-47
2022/11/11 10:05:18;;;;;;;8.15;3.90;;;17.40;1.00;;;;;;4883413;29;20170;-46
2022/11/11 10:08:15;;;;;;;7.00;3.55;;;17.40;1.00;;;;;;4882732;29;20064;-47
2022/11/11 10:11:05;;;;;;;9.00;3.05;;;17.40;1.00;;;;;;4882940;29;20056;-49
2022/11/11 10:13:53;;;;;;;10.32;3.67;;;17.40;1.00;;;;;;4883320;29;20052;-46
2022/11/11 10:17:08;;;;;;;7.43;2.75;;;17.40;1.00;;;;;;4882708;29;20138;-49
2022/11/11 10:20:01;;;;;;;9.02;3.22;;;17.40;1.00;;;;;;4882145;29;20527;-49
2022/11/11 10:22:50;;;;;;;8.40;3.58;;;17.40;1.00;;;;;;4882476;29;20052;-49
2022/11/11 10:25:37;;;;;;;9.73;3.67;;;17.40;1.00;;;;;;4882783;29;20059;-50
2022/11/11 10:28:29;;;;;;;10.48;3.70;;;17.40;1.00;;;;;;4882247;29;20125;-48
2022/11/11 10:31:19;;;;;;;7.47;4.45;;;17.40;1.00;;;;;;4882116;29;20060;-47
2022/11/11 10:34:10;;;;;;;9.57;3.92;;;17.40;1.00;;;;;;4882713;29;20156;-53
2022/11/11 10:36:57;;;;;;;7.63;4.38;;;17.40;1.00;;;;;;4882512;29;20075;-50
2022/11/11 10:39:54;;;;;;;11.40;4.38;;;17.40;1.00;;;;;;4881943;29;20064;-51
2022/11/11 10:42:39;;;;;;;11.93;4.07;;;17.40;1.00;;;;;;4882019;29;20058;-47
2022/11/11 10:45:30;;;;;;;8.25;4.13;;;17.40;1.00;;;;;;4882443;29;20128;-51
2022/11/11 10:48:19;;;;;;;9.88;4.40;;;17.40;1.00;;;;;;4881938;29;20101;-50
2022/11/11 10:51:06;;;;;;;8.60;3.92;;;17.40;1.00;;;;;;4882259;29;20060;-51
2022/11/11 10:54:16;;;;;;;7.38;3.90;;;17.40;1.00;;;;;;4882137;29;20108;-51
2022/11/11 10:57:14;;;;;;;9.85;3.90;;;17.40;1.00;;;;;;4882282;29;20052;-46
2022/11/11 11:00:05;;;;;;;9.80;4.22;;;17.40;1.00;;;;;;4881655;29;20079;-48
2022/11/11 11:02:58;;;;;;;7.47;3.72;;;17.40;1.00;;;;;;4881706;29;20052;-50
2022/11/11 11:05:57;;;;;;;10.50;3.80;;;17.40;1.00;;;;;;4882229;29;20053;-50
2022/11/11 11:08:47;;;;;;;6.95;3.63;;;17.40;1.00;;;;;;4881027;29;20059;-50
2022/11/11 11:11:44;;;;;;;7.70;3.63;;;17.40;1.00;;;;;;4881655;29;20063;-47
2022/11/11 11:14:38;;;;;;;9.40;4.05;;;17.40;1.00;;;;;;4881032;29;20109;-50
2022/11/11 11:17:50;;;;;;;10.85;4.80;;;17.40;1.00;;;;;;4881736;29;20048;-48
2022/11/11 11:20:36;;;;;;;9.20;6.03;;;17.40;1.00;;;;;;4878333;29;20056;-51
2022/11/11 11:23:36;;;;;;;10.13;4.57;;;17.40;1.00;;;;;;4881310;29;20052;-51
2022/11/11 11:26:22;;;;;;;6.45;4.22;;;17.40;1.00;;;;;;4881203;29;20052;-51
2022/11/11 11:29:07;;;;;;;12.63;4.25;;;17.40;1.00;;;;;;4881070;29;20068;-50
2022/11/11 11:31:53;;;;;;;11.02;4.60;;;17.40;1.00;;;;;;4881504;29;20060;-48
2022/11/11 11:34:52;;;;;;;9.10;3.90;;;17.40;1.00;;;;;;4881320;29;20109;-53
2022/11/11 11:37:49;;;;;;;6.43;3.60;;;17.40;1.00;;;;;;4880594;29;20140;-51
2022/11/11 11:40:57;;;;;;;13.90;5.55;;;17.40;1.00;;;;;;4877716;29;20104;-48
2022/11/11 11:43:43;;;;;;;13.98;6.22;;;17.40;1.00;;;;;;4856247;29;20514;-46
2022/11/11 11:46:36;;;;;;;19.40;8.48;;;17.40;1.00;;;;;;4853920;29;20110;-49
2022/11/11 11:49:38;;;;;;;16.30;7.53;;;17.30;1.00;;;;;;4853846;29;20118;-51
2022/11/11 11:52:42;;;;;;;17.30;8.90;;;17.30;1.00;;;;;;4853278;29;20063;-51
2022/11/11 11:55:45;;;;;;;20.73;9.20;;;17.30;1.00;;;;;;4844458;29;20512;-50
2022/11/11 11:58:39;;;;;;;27.15;9.55;;;17.30;1.00;;;;;;4845857;29;20081;-51
2022/11/11 12:01:51;;;;;;;21.83;9.13;;;17.30;1.00;;;;;;4860715;29;20060;-51
2022/11/11 12:04:59;;;;;;;17.48;8.70;;;17.30;1.00;;;;;;4862821;29;20525;-50
2022/11/11 12:08:07;;;;;;;27.30;9.68;;;17.30;1.00;;;;;;4856019;29;20415;-54
2022/11/11 12:11:07;;;;;;;18.10;9.00;;;17.30;1.00;;;;;;4855196;29;20059;-51
2022/11/11 12:14:11;;;;;;;14.20;8.25;;;17.30;1.00;;;;;;4860392;29;20060;-49
2022/11/11 12:17:44;;;;;;;20.07;9.47;;;17.30;1.00;;;;;;4862261;29;20109;-53
2022/11/11 12:20:36;;;;;;;20.50;8.20;;;17.30;1.00;;;;;;4830201;29;20132;-51
2022/11/11 12:23:56;;;;;;;16.15;7.13;;;17.30;1.00;;;;;;4854035;29;20097;-50
2022/11/11 12:27:06;;;;;;;20.67;7.68;;;17.30;1.00;;;;;;4858648;29;20057;-49
2022/11/11 12:30:10;;;;;;;12.68;7.47;;;17.30;1.00;;;;;;4843230;29;20053;-51
2022/11/11 12:33:10;;;;;;;18.52;8.48;;;17.30;1.00;;;;;;4843401;29;20119;-54
2022/11/11 12:35:58;;;;;;;18.20;7.88;;;17.30;1.00;;;;;;4851010;29;20117;-53
2022/11/11 12:38:57;;;;;;;16.75;7.18;;;17.30;1.00;;;;;;4861434;29;20193;-50
2022/11/11 12:42:04;;;;;;;14.52;6.93;;;17.30;1.00;;;;;;4861578;29;20063;-49
2022/11/11 12:44:59;;;;;;;13.90;7.32;;;17.30;1.00;;;;;;4862235;29;20065;-51
2022/11/11 12:47:53;;;;;;;11.77;6.72;;;17.30;1.00;;;;;;4861771;29;20057;-46
2022/11/11 12:50:44;;;;;;;14.10;7.22;;;17.30;1.00;;;;;;4861827;29;20109;-51
2022/11/11 12:53:47;;;;;;;13.63;7.35;;;17.30;1.00;;;;;;4861482;29;20129;-50
2022/11/11 12:56:47;;;;;;;13.95;6.95;;;17.30;1.00;;;;;;4861649;29;20158;-51
2022/11/11 13:00:00;;;;;;;12.20;6.50;;;17.30;1.00;;;;;;4855848;29;20111;-52
2022/11/11 13:03:03;;;;;;;12.80;6.43;;;17.30;1.00;;;;;;4857844;29;20056;-49
2022/11/11 13:06:13;;;;;;;13.98;7.72;;;17.30;1.00;;;;;;4847558;29;20141;-50
2022/11/11 13:09:32;;;;;;;14.95;6.32;;;17.30;1.00;;;;;;4842703;29;20057;-49
2022/11/11 13:12:28;;;;;;;16.70;6.78;;;17.30;1.00;;;;;;4843075;29;20049;-52
2022/11/11 13:15:18;;;;;;;11.43;6.22;;;17.30;1.00;;;;;;4842897;29;20057;-50
2022/11/11 13:18:12;;;;;;;11.40;6.63;;;17.30;1.00;;;;;;4842338;29;20543;-47
2022/11/11 13:21:05;;;;;;;15.90;6.32;;;17.30;1.00;;;;;;4842646;29;20065;-49
2022/11/11 13:23:52;;;;;;;11.60;5.70;;;17.30;1.00;;;;;;4842461;29;20194;-47
2022/11/11 13:26:55;;;;;;;12.68;6.38;;;17.30;1.00;;;;;;4842411;29;20548;-48
2022/11/11 13:30:15;;;;;;;12.73;6.18;;;17.30;1.00;;;;;;4842582;29;20535;-50
2022/11/11 13:33:14;;;;;;;9.43;6.20;;;17.30;1.00;;;;;;4842340;29;20442;-49
2022/11/11 13:36:15;;;;;;;12.85;5.90;;;17.30;1.00;;;;;;4842852;29;20065;-48
2022/11/11 13:39:02;;;;;;;12.50;6.65;;;17.30;1.00;;;;;;4844457;29;20064;-47
2022/11/11 13:41:52;;;;;;;13.27;6.07;;;17.30;1.00;;;;;;4846161;29;20061;-49
2022/11/11 13:44:56;;;;;;;11.52;5.95;;;17.20;1.00;;;;;;4846232;29;20049;-50
2022/11/11 13:47:43;;;;;;;;;;;17.30;1.00;;;;;;4846441;29;20175;-50
2022/11/11 13:50:38;;;;;;;10.00;5.95;;;17.30;1.00;;;;;;4846291;29;19931;-49
2022/11/11 13:53:33;;;;;;;9.63;5.00;;;17.20;1.00;;;;;;4846162;29;20073;-53
2022/11/11 13:56:40;;;;;;;10.30;5.50;;;17.20;1.00;;;;;;4846026;29;20400;-50
2022/11/11 13:59:29;;;;;;;11.95;5.85;;;17.20;1.00;;;;;;4845562;29;20061;-48
2022/11/11 14:02:17;;;;;;;10.32;5.82;;;17.20;1.00;;;;;;4845917;29;20125;-49
2022/11/11 14:05:04;;;;;;;13.07;5.00;;;17.20;1.00;;;;;;4846162;29;20158;-48
2022/11/11 14:07:53;;;;;;;15.98;5.28;;;17.20;1.00;;;;;;4845847;29;20061;-52
2022/11/11 14:10:38;;;;;;;23.63;6.15;;;17.20;1.00;;;;;;4845774;29;20385;-48
2022/11/11 14:13:31;;;;;;;10.23;6.28;;;17.30;1.00;;;;;;4845732;29;20077;-48
2022/11/11 14:16:35;;;;;;;9.52;5.35;;;17.20;1.00;;;;;;4845797;29;20061;-50
2022/11/11 14:19:20;;;;;;;12.65;6.43;;;17.30;1.00;;;;;;4845310;29;20061;-52
2022/11/11 14:22:29;;;;;;;10.43;5.13;;;17.20;1.00;;;;;;4845419;29;20057;-50
2022/11/11 14:25:27;;;;;;;11.20;5.03;;;17.20;1.00;;;;;;4845937;29;20060;-48
2022/11/11 14:28:26;;;;;;;12.90;5.70;;;17.20;1.00;;;;;;4845007;29;20057;-51
2022/11/11 14:31:11;;;;;;;10.85;4.95;;;17.20;1.00;;;;;;4845460;29;20073;-53
2022/11/11 14:34:38;;;;;;;9.20;5.18;;;17.20;1.00;;;;;;4845632;29;20125;-49
2022/11/11 14:38:01;;;;;;;10.38;6.05;;;17.20;1.00;;;;;;4845195;29;20065;-50
2022/11/11 14:40:47;;;;;;;8.93;4.95;;;17.20;1.00;;;;;;4845082;29;20129;-49
2022/11/11 14:43:37;;;;;;;13.45;5.25;;;17.20;1.00;;;;;;4844728;29;20183;-52
2022/11/11 14:46:22;;;;;;;8.70;5.57;;;17.20;1.00;;;;;;4845411;29;20564;-50
2022/11/11 14:49:07;;;;;;;8.90;6.00;;;17.20;1.00;;;;;;4844747;29;20065;-53
2022/11/11 14:51:57;;;;;;;11.07;5.10;;;17.20;1.00;;;;;;4845197;29;20158;-46
2022/11/11 14:55:09;;;;;;;10.25;5.50;;;17.20;1.00;;;;;;4845258;29;20457;-53
2022/11/11 14:57:59;;;;;;;9.60;5.50;;;17.20;1.00;;;;;;4844972;29;20106;-52
2022/11/11 15:00:59;;;;;;;9.00;5.45;;;17.20;1.00;;;;;;4844921;29;20056;-52
2022/11/11 15:03:48;;;;;;;10.02;5.32;;;17.20;1.00;;;;;;4845278;29;20045;-48
2022/11/11 15:06:55;;;;;;;10.65;4.95;;;17.20;1.00;;;;;;4845321;29;20053;-51
2022/11/11 15:10:07;;;;;;;11.18;6.22;;;17.20;1.00;;;;;;4844647;29;20233;-53
2022/11/11 15:13:04;;;;;;;7.22;5.25;;;17.20;1.00;;;;;;4844742;29;20069;-50
2022/11/11 15:15:55;;;;;;;8.88;4.95;;;17.20;1.00;;;;;;4844684;29;20057;-51
2022/11/11 15:18:52;;;;;;;9.73;4.85;;;17.20;1.00;;;;;;4844286;29;20076;-53
2022/11/11 15:21:57;;;;;;;11.35;5.10;;;17.20;1.00;;;;;;4844780;29;20137;-51
2022/11/11 15:25:24;;;;;;;10.85;5.03;;;17.20;1.00;;;;;;4844986;29;20085;-52
2022/11/11 15:28:38;;;;;;;12.52;4.70;;;17.20;1.00;;;;;;4844717;29;20113;-50
2022/11/11 15:31:36;;;;;;;6.72;4.45;;;17.20;1.00;;;;;;4844090;29;20056;-51
2022/11/11 15:34:39;;;;;;;9.65;4.88;;;17.20;1.00;;;;;;4844298;29;20131;-51
2022/11/11 15:37:26;;;;;;;11.52;5.40;;;17.20;1.00;;;;;;4844456;29;20114;-50
2022/11/11 15:40:21;;;;;;;8.35;5.13;;;17.20;1.00;;;;;;4837653;29;20146;-49
2022/11/11 15:43:17;;;;;;;7.88;4.55;;;17.20;1.00;;;;;;4836263;29;20082;-53
2022/11/11 15:46:04;;;;;;;12.25;4.72;;;17.20;1.00;;;;;;4839340;29;20057;-51
2022/11/11 15:48:50;;;;;;;6.20;5.10;;;17.20;1.00;;;;;;4842265;29;20107;-50
2022/11/11 15:51:37;;;;;;;8.68;4.30;;;17.20;1.00;;;;;;4844015;29;20049;-48
2022/11/11 15:54:22;;;;;;;8.10;4.88;;;17.20;1.00;;;;;;4844185;29;20057;-50
2022/11/11 15:57:34;;;;;;;10.02;5.00;;;17.20;1.00;;;;;;4844173;29;20084;-48
2022/11/11 16:00:22;;;;;;;7.45;4.50;;;17.20;1.00;;;;;;4843293;29;20428;-48
2022/11/11 16:03:32;;;;;;;8.27;4.53;;;17.20;1.00;;;;;;4843208;29;20080;-52
2022/11/11 16:06:18;;;;;;;6.75;3.97;;;17.20;1.00;;;;;;4843826;29;20072;-51
2022/11/11 16:09:03;;;;;;;12.63;4.88;;;17.20;1.00;;;;;;4843733;29;20106;-50
2022/11/11 16:11:51;;;;;;;8.38;4.68;;;17.20;1.00;;;;;;4843868;29;20235;-50
2022/11/11 16:14:42;;;;;;;10.35;5.15;;;17.20;1.00;;;;;;4843804;29;20061;-50